Brandywine — WDB9646 — position and weather

sailwx.info

Track history (hours):
 
Tides and Currents Weather Stations Pressure Air Temp Water Temp Dewpoint Dewpoint Depression Visibility Wind Speed Wind Dir Waves Ship Positions

Brandywine

Owner: OVERALLS LEASING LLC, LEWES, DE. More information available from US FCC via Universal Licensing System and Coast Guard Vessel Documentation Center.

Last reported at 2017-Oct-19 14:55 UTC. Time now 2017-Oct-19 16:18 UTC.
Position N 38°47' W 075°07'.

Length 16 m.

Type: . MMSI: 366980160.

Date/timePositionNaut miles runAvg speedWind from/ knotsBaromVisibWave heightAir tempDewpointWater temp
2017-Oct-19 14:55N 38°47' W 075°07'0 0.0
2017-Oct-19 14:29N 38°47' W 075°07'0 0.0
2017-Oct-19 13:59N 38°47' W 075°07'0 0.0
2017-Oct-19 13:30N 38°47' W 075°07'0 0.0
2017-Oct-19 13:00N 38°47' W 075°07'0 0.0
2017-Oct-19 12:30N 38°47' W 075°07'3 6.3
2017-Oct-19 12:00N 38°48' W 075°03'3 6.2
2017-Oct-19 11:30N 38°47' W 075°07'0 0.0
2017-Oct-19 11:00N 38°47' W 075°07'0 0.0
2017-Oct-19 10:30N 38°47' W 075°07'0 0.0
2017-Oct-19 10:00N 38°47' W 075°07'0 0.0
2017-Oct-19 09:30N 38°47' W 075°07'0 0.0
2017-Oct-19 08:59N 38°47' W 075°07'0 0.0
2017-Oct-19 08:29N 38°47' W 075°07'0 0.0
2017-Oct-19 07:58N 38°47' W 075°07'0 0.0
2017-Oct-19 07:31N 38°47' W 075°07'4 7.9
2017-Oct-19 07:00N 38°47' W 075°02'4 7.8
2017-Oct-19 06:30N 38°47' W 075°07'0 0.0
2017-Oct-19 05:56N 38°47' W 075°07'0 0.0
2017-Oct-19 05:30N 38°47' W 075°07'0 0.0
2017-Oct-19 05:00N 38°47' W 075°07'0 0.0
2017-Oct-19 04:30N 38°47' W 075°07'0 0.0
2017-Oct-19 04:00N 38°47' W 075°07'0 0.0
2017-Oct-19 03:30N 38°47' W 075°07'4 2.4
2017-Oct-19 01:47N 38°50' W 075°05'414.6
2017-Oct-19 01:30N 38°47' W 075°07'4 0.9
2017-Oct-18 21:13N 38°50' W 075°05'4 0.6
2017-Oct-18 14:54N 38°47' W 075°07'0 0.0
2017-Oct-18 14:00N 38°47' W 075°07'0 0.0
2017-Oct-18 13:30N 38°47' W 075°07'0 0.0
2017-Oct-18 13:00N 38°47' W 075°07'0 0.0
2017-Oct-18 12:30N 38°47' W 075°07'0 0.0
2017-Oct-18 12:00N 38°47' W 075°07'0 0.0
2017-Oct-18 11:30N 38°47' W 075°07'0 0.0
2017-Oct-18 11:00N 38°47' W 075°07'0 0.0
2017-Oct-18 10:30N 38°47' W 075°07'0 0.0
2017-Oct-18 10:00N 38°47' W 075°07'0 0.0
2017-Oct-18 09:15N 38°47' W 075°07'0 0.0
2017-Oct-18 09:00N 38°47' W 075°07'0 0.0
2017-Oct-18 08:30N 38°47' W 075°07'0 0.0
2017-Oct-18 08:00N 38°47' W 075°07'0 0.0
2017-Oct-18 07:08N 38°47' W 075°07'0 0.0
2017-Oct-18 07:00N 38°47' W 075°07'0 0.0
2017-Oct-18 06:20N 38°47' W 075°07'0 0.0
2017-Oct-18 06:00N 38°47' W 075°07'0 0.0
2017-Oct-18 05:30N 38°47' W 075°07'0 0.0
2017-Oct-18 05:00N 38°47' W 075°07'0 0.0
2017-Oct-18 04:27N 38°47' W 075°07'0 0.0
2017-Oct-18 04:00N 38°47' W 075°07'0 0.0
2017-Oct-18 03:28N 38°47' W 075°07'0 0.0
2017-Oct-18 02:54N 38°47' W 075°07'0 0.0
2017-Oct-18 02:22N 38°47' W 075°07'2 0.1
2017-Oct-16 12:34N 38°48' W 075°10'0 0.0
2017-Oct-16 12:26N 38°48' W 075°10'0 0.0
2017-Oct-16 11:49N 38°48' W 075°10'0 0.0
2017-Oct-15 14:38N 38°48' W 075°10'0 0.0
2017-Oct-15 13:34N 38°48' W 075°10'0 0.0
2017-Oct-15 13:25N 38°48' W 075°10'0 0.0
2017-Oct-15 12:38N 38°48' W 075°10'0 0.0
2017-Oct-15 12:28N 38°48' W 075°10'0 0.0
2017-Oct-15 11:50N 38°48' W 075°10'0 0.0
2017-Oct-15 01:54N 38°48' W 075°10'0 0.0
2017-Oct-15 01:27N 38°48' W 075°10'0 0.0
2017-Oct-15 00:22N 38°48' W 075°10'0 0.0
2017-Oct-14 23:55N 38°48' W 075°10'0 0.0
2017-Oct-14 23:15N 38°48' W 075°10'0 0.0
2017-Oct-14 22:57N 38°48' W 075°10'0 0.0
2017-Oct-14 21:30N 38°48' W 075°10'0 0.0
2017-Oct-14 20:59N 38°48' W 075°10'0 0.0
2017-Oct-14 20:11N 38°48' W 075°10'0 0.0
2017-Oct-14 19:59N 38°48' W 075°10'0 0.0
2017-Oct-14 19:21N 38°48' W 075°10'0 0.0
2017-Oct-14 18:55N 38°48' W 075°10'0 0.0
2017-Oct-14 18:27N 38°48' W 075°10'0 0.0
2017-Oct-14 17:57N 38°48' W 075°10'0 0.0
2017-Oct-14 15:51N 38°48' W 075°10'  
2017-Oct-11 22:58N 38°47' W 075°07'0 0.0
2017-Oct-11 22:03N 38°47' W 075°07'0 0.1
2017-Oct-11 21:57N 38°47' W 075°07'0 0.0
2017-Oct-11 21:21N 38°47' W 075°07'0 0.0
2017-Oct-11 20:46N 38°47' W 075°07'1 0.3
2017-Oct-11 16:41N 38°48' W 075°07'1 0.1
2017-Oct-11 00:00N 38°47' W 075°07'0 0.0
2017-Oct-10 17:21N 38°47' W 075°07'2 5.3
2017-Oct-10 16:53N 38°49' W 075°07'410.6
2017-Oct-10 16:30N 38°48' W 075°02'4 7.5
2017-Oct-10 15:59N 38°47' W 075°07'0 0.0
2017-Oct-10 15:28N 38°47' W 075°07'0 0.0
2017-Oct-10 14:59N 38°47' W 075°07'0 0.0
2017-Oct-10 13:58N 38°47' W 075°07'0 0.0
2017-Oct-10 13:30N 38°47' W 075°07'0 0.0
2017-Oct-10 13:00N 38°47' W 075°07'0 0.0
2017-Oct-10 12:29N 38°47' W 075°07'0 0.0
2017-Oct-10 12:00N 38°47' W 075°07'0 0.0
2017-Oct-10 11:29N 38°47' W 075°07'0 0.0
2017-Oct-10 10:49N 38°47' W 075°07'0 0.0
2017-Oct-10 08:34N 38°47' W 075°07'0 0.0
2017-Oct-10 08:29N 38°47' W 075°07'0 0.0
2017-Oct-10 08:00N 38°47' W 075°07'0 0.0
2017-Oct-10 07:30N 38°47' W 075°07'0 0.0
2017-Oct-10 07:00N 38°47' W 075°07'0 0.0
2017-Oct-10 06:30N 38°47' W 075°07'0 0.0
2017-Oct-10 06:00N 38°47' W 075°07'0 0.0
2017-Oct-10 05:27N 38°47' W 075°07'0 0.0
2017-Oct-10 04:58N 38°47' W 075°07'0 0.0
2017-Oct-09 15:00N 38°47' W 075°07'  
Track history (hours):
 
Tides and Currents Weather Stations Pressure Air Temp Water Temp Dewpoint Dewpoint Depression Visibility Wind Speed Wind Dir Waves Ship Positions

Brandywine

Owner: OVERALLS LEASING LLC, LEWES, DE. More information available from US FCC via Universal Licensing System and Coast Guard Vessel Documentation Center.

Last reported at 2017-Oct-19 14:55 UTC. Time now 2017-Oct-19 16:18 UTC.
Position N 38°47' W 075°07'.

Length 16 m.

Type: . MMSI: 366980160.

Date/timePositionNaut miles runAvg speedWind from/ knotsBaromVisibWave heightAir tempDewpointWater temp
2017-Oct-19 14:55N 38°47' W 075°07'0 0.0
2017-Oct-19 14:29N 38°47' W 075°07'0 0.0
2017-Oct-19 13:59N 38°47' W 075°07'0 0.0
2017-Oct-19 13:30N 38°47' W 075°07'0 0.0
2017-Oct-19 13:00N 38°47' W 075°07'0 0.0
2017-Oct-19 12:30N 38°47' W 075°07'3 6.3
2017-Oct-19 12:00N 38°48' W 075°03'3 6.2
2017-Oct-19 11:30N 38°47' W 075°07'0 0.0
2017-Oct-19 11:00N 38°47' W 075°07'0 0.0
2017-Oct-19 10:30N 38°47' W 075°07'0 0.0
2017-Oct-19 10:00N 38°47' W 075°07'0 0.0
2017-Oct-19 09:30N 38°47' W 075°07'0 0.0
2017-Oct-19 08:59N 38°47' W 075°07'0 0.0
2017-Oct-19 08:29N 38°47' W 075°07'0 0.0
2017-Oct-19 07:58N 38°47' W 075°07'0 0.0
2017-Oct-19 07:31N 38°47' W 075°07'4 7.9
2017-Oct-19 07:00N 38°47' W 075°02'4 7.8
2017-Oct-19 06:30N 38°47' W 075°07'0 0.0
2017-Oct-19 05:56N 38°47' W 075°07'0 0.0
2017-Oct-19 05:30N 38°47' W 075°07'0 0.0
2017-Oct-19 05:00N 38°47' W 075°07'0 0.0
2017-Oct-19 04:30N 38°47' W 075°07'0 0.0
2017-Oct-19 04:00N 38°47' W 075°07'0 0.0
2017-Oct-19 03:30N 38°47' W 075°07'4 2.4
2017-Oct-19 01:47N 38°50' W 075°05'414.6
2017-Oct-19 01:30N 38°47' W 075°07'4 0.9
2017-Oct-18 21:13N 38°50' W 075°05'4 0.6
2017-Oct-18 14:54N 38°47' W 075°07'0 0.0
2017-Oct-18 14:00N 38°47' W 075°07'0 0.0
2017-Oct-18 13:30N 38°47' W 075°07'0 0.0
2017-Oct-18 13:00N 38°47' W 075°07'0 0.0
2017-Oct-18 12:30N 38°47' W 075°07'0 0.0
2017-Oct-18 12:00N 38°47' W 075°07'0 0.0
2017-Oct-18 11:30N 38°47' W 075°07'0 0.0
2017-Oct-18 11:00N 38°47' W 075°07'0 0.0
2017-Oct-18 10:30N 38°47' W 075°07'0 0.0
2017-Oct-18 10:00N 38°47' W 075°07'0 0.0
2017-Oct-18 09:15N 38°47' W 075°07'0 0.0
2017-Oct-18 09:00N 38°47' W 075°07'0 0.0
2017-Oct-18 08:30N 38°47' W 075°07'0 0.0
2017-Oct-18 08:00N 38°47' W 075°07'0 0.0
2017-Oct-18 07:08N 38°47' W 075°07'0 0.0
2017-Oct-18 07:00N 38°47' W 075°07'0 0.0
2017-Oct-18 06:20N 38°47' W 075°07'0 0.0
2017-Oct-18 06:00N 38°47' W 075°07'0 0.0
2017-Oct-18 05:30N 38°47' W 075°07'0 0.0
2017-Oct-18 05:00N 38°47' W 075°07'0 0.0
2017-Oct-18 04:27N 38°47' W 075°07'0 0.0
2017-Oct-18 04:00N 38°47' W 075°07'0 0.0
2017-Oct-18 03:28N 38°47' W 075°07'0 0.0
2017-Oct-18 02:54N 38°47' W 075°07'0 0.0
2017-Oct-18 02:22N 38°47' W 075°07'2 0.1
2017-Oct-16 12:34N 38°48' W 075°10'0 0.0
2017-Oct-16 12:26N 38°48' W 075°10'0 0.0
2017-Oct-16 11:49N 38°48' W 075°10'0 0.0
2017-Oct-15 14:38N 38°48' W 075°10'0 0.0
2017-Oct-15 13:34N 38°48' W 075°10'0 0.0
2017-Oct-15 13:25N 38°48' W 075°10'0 0.0
2017-Oct-15 12:38N 38°48' W 075°10'0 0.0
2017-Oct-15 12:28N 38°48' W 075°10'0 0.0
2017-Oct-15 11:50N 38°48' W 075°10'0 0.0
2017-Oct-15 01:54N 38°48' W 075°10'0 0.0
2017-Oct-15 01:27N 38°48' W 075°10'0 0.0
2017-Oct-15 00:22N 38°48' W 075°10'0 0.0
2017-Oct-14 23:55N 38°48' W 075°10'0 0.0
2017-Oct-14 23:15N 38°48' W 075°10'0 0.0
2017-Oct-14 22:57N 38°48' W 075°10'0 0.0
2017-Oct-14 21:30N 38°48' W 075°10'0 0.0
2017-Oct-14 20:59N 38°48' W 075°10'0 0.0
2017-Oct-14 20:11N 38°48' W 075°10'0 0.0
2017-Oct-14 19:59N 38°48' W 075°10'0 0.0
2017-Oct-14 19:21N 38°48' W 075°10'0 0.0
2017-Oct-14 18:55N 38°48' W 075°10'0 0.0
2017-Oct-14 18:27N 38°48' W 075°10'0 0.0
2017-Oct-14 17:57N 38°48' W 075°10'0 0.0
2017-Oct-14 15:51N 38°48' W 075°10'  
2017-Oct-11 22:58N 38°47' W 075°07'0 0.0
2017-Oct-11 22:03N 38°47' W 075°07'0 0.1
2017-Oct-11 21:57N 38°47' W 075°07'0 0.0
2017-Oct-11 21:21N 38°47' W 075°07'0 0.0
2017-Oct-11 20:46N 38°47' W 075°07'1 0.3
2017-Oct-11 16:41N 38°48' W 075°07'1 0.1
2017-Oct-11 00:00N 38°47' W 075°07'0 0.0
2017-Oct-10 17:21N 38°47' W 075°07'2 5.3
2017-Oct-10 16:53N 38°49' W 075°07'410.6
2017-Oct-10 16:30N 38°48' W 075°02'4 7.5
2017-Oct-10 15:59N 38°47' W 075°07'0 0.0
2017-Oct-10 15:28N 38°47' W 075°07'0 0.0
2017-Oct-10 14:59N 38°47' W 075°07'0 0.0
2017-Oct-10 13:58N 38°47' W 075°07'0 0.0
2017-Oct-10 13:30N 38°47' W 075°07'0 0.0
2017-Oct-10 13:00N 38°47' W 075°07'0 0.0
2017-Oct-10 12:29N 38°47' W 075°07'0 0.0
2017-Oct-10 12:00N 38°47' W 075°07'0 0.0
2017-Oct-10 11:29N 38°47' W 075°07'0 0.0
2017-Oct-10 10:49N 38°47' W 075°07'0 0.0
2017-Oct-10 08:34N 38°47' W 075°07'0 0.0
2017-Oct-10 08:29N 38°47' W 075°07'0 0.0
2017-Oct-10 08:00N 38°47' W 075°07'0 0.0
2017-Oct-10 07:30N 38°47' W 075°07'0 0.0
2017-Oct-10 07:00N 38°47' W 075°07'0 0.0
2017-Oct-10 06:30N 38°47' W 075°07'0 0.0
2017-Oct-10 06:00N 38°47' W 075°07'0 0.0
2017-Oct-10 05:27N 38°47' W 075°07'0 0.0
2017-Oct-10 04:58N 38°47' W 075°07'0 0.0
2017-Oct-09 15:00N 38°47' W 075°07'  

Dump ship's entire track history